This is the latest recevied weather packets stored in our database for station/object W1SGB. If no packets are shown the sender has not sent any weather packets the latest 10 day(s).
| Time | Temp. | Humidity | Pressure | Rain* | Wind** | Luminosity | Snow |
|---|---|---|---|---|---|---|---|
| 1777791623 | 4.44° C | 91% | 1008.6 hPa | 0 mm | - | 0 W/m² | - |
| 1777791024 | 4.44° C | 91% | 1008.6 hPa | 0 mm | - | 0 W/m² | - |
| 1777790423 | 4.44° C | 91% | 1008.8 hPa | 0 mm | - | 0 W/m² | - |
| 1777789244 | 5° C | 92% | 1009.1 hPa | 0 mm | - | 0 W/m² | - |
| 1777782626 | 5.56° C | 88% | 1010.1 hPa | 0 mm | - | 0 W/m² | - |
| 1777778447 | 7.22° C | 96% | 1010.4 hPa | 0 mm | - | 0 W/m² | - |
| 1777775420 | 7.78° C | 96% | 1010.5 hPa | 0 mm | - | 0 W/m² | - |
| 1777773017 | 7.78° C | 96% | 1010.4 hPa | 0 mm | - | 0 W/m² | - |
| 1777772417 | 7.78° C | 96% | 1010.5 hPa | 0 mm | - | 0 W/m² | - |
| 1777771220 | 8.33° C | 96% | 1010.6 hPa | 0 mm | - | 0 W/m² | - |
| 1777770038 | 8.33° C | 95% | 1010.4 hPa | 0 mm | - | 0 W/m² | - |
| 1777764618 | 9.44° C | 95% | 1010.2 hPa | 0 mm | - | 13 W/m² | - |
| 1777760416 | 9.44° C | 94% | 1010 hPa | 0.51 mm | - | 54 W/m² | - |
| 1777758017 | 9.44° C | 92% | 1010.3 hPa | 1.27 mm | - | 35 W/m² | - |
| 1777753819 | 12.22° C | 70% | 1010.1 hPa | 0 mm | - | 33 W/m² | - |
| 1777745422 | 12.22° C | 66% | 1010.8 hPa | 0.25 mm | - | 559 W/m² | - |
| 1777742422 | 10.56° C | 77% | 1011.3 hPa | 0.51 mm | - | 106 W/m² | - |
| 1777738823 | 11.11° C | 72% | 1011.6 hPa | 0 mm | - | 103 W/m² | - |
| 1777738224 | 11.67° C | 71% | 1011.6 hPa | 0 mm | - | 125 W/m² | - |
| 1777737024 | 11.67° C | 67% | 1011.8 hPa | 0.25 mm | - | 109 W/m² | - |
| 1777735224 | 11.11° C | 80% | 1011.6 hPa | 0.25 mm | - | 185 W/m² | - |
| 1777723828 | 9.44° C | 84% | 1012.6 hPa | 0 mm | - | 53 W/m² | - |
| 1777722048 | 8.33° C | 90% | 1012.1 hPa | 0 mm | - | 45 W/m² | - |
| 1777721428 | 7.78° C | 92% | 1012 hPa | 0 mm | - | 65 W/m² | - |
| 1777719029 | 7.22° C | 93% | 1011.8 hPa | 0 mm | - | 27 W/m² | - |
* Rain latest hour (hover to see other rain measurements)
** Current wind speed in m/s (hover to see current wind gust speed)